Thai Harvest — V7XQ5 — position and weather

sailwx.info

Track history (hours):
 
Tides and Currents Weather Stations Pressure Air Temp Water Temp Dewpoint Dewpoint Depression Visibility Wind Speed Wind Dir Waves Ship Positions

Thai Harvest

Last reported at 2015-Jan-13 19:33 UTC. Time now 2015-Jan-26 16:27 UTC.
Position N 22°27' E 119°54'.
Warning: this ship's position is 12 days out of date.

Length 174 m; draft 9.4 m.

Type: Cargo ship. MMSI: 538004544.

Date/timePositionNaut miles runAvg speedWind from/ knotsBaromVisibWave heightAir tempDewpointWater temp
2015-Jan-13 19:33N 22°27' E 119°54'1010.6
2015-Jan-13 18:33N 22°37' E 119°54'1110.5
2015-Jan-13 17:33N 22°48' E 119°54'  
2015-Jan-11 12:24N 31°04' E 122°32'7 7.8
2015-Jan-11 11:32N 31°05' E 122°24'1111.6
2015-Jan-11 10:33N 31°10' E 122°12'1211.6
2015-Jan-11 09:33N 31°15' E 121°60'10 9.7
2015-Jan-11 08:33N 31°17' E 121°49'9 8.8
2015-Jan-11 07:33N 31°21' E 121°40'7 7.5
2015-Jan-11 06:33N 31°25' E 121°32'7 6.8
2015-Jan-11 05:33N 31°29' E 121°26'1010.4
2015-Jan-11 04:33N 31°36' E 121°17'1211.9
2015-Jan-11 03:33N 31°44' E 121°06'1111.4
2015-Jan-11 02:33N 31°49' E 120°55'1010.3
2015-Jan-11 01:33N 31°59' E 120°50'9 8.8
2015-Jan-11 00:31N 31°59' E 120°39'0 0.1
2015-Jan-10 23:29N 31°59' E 120°39'0 0.0
2015-Jan-10 22:31N 31°59' E 120°39'0 0.0
2015-Jan-10 21:28N 31°59' E 120°39'0 0.0
2015-Jan-10 20:28N 31°59' E 120°39'0 0.0
2015-Jan-10 19:31N 31°59' E 120°39'0 0.0
2015-Jan-10 18:28N 31°59' E 120°39'0 0.0
2015-Jan-10 17:31N 31°59' E 120°39'0 0.0
2015-Jan-10 16:31N 31°59' E 120°39'0 0.0
2015-Jan-10 15:28N 31°59' E 120°39'0 0.0
2015-Jan-10 14:31N 31°59' E 120°39'0 0.0
2015-Jan-10 13:31N 31°59' E 120°39'0 0.0
2015-Jan-10 12:31N 31°59' E 120°39'0 0.0
2015-Jan-10 11:25N 31°59' E 120°39'0 0.0
2015-Jan-10 10:31N 31°59' E 120°39'0 0.0
2015-Jan-10 09:25N 31°59' E 120°39'0 0.0
2015-Jan-10 08:31N 31°59' E 120°39'0 0.0
2015-Jan-10 07:28N 31°59' E 120°39'0 0.0
2015-Jan-10 06:31N 31°59' E 120°39'0 0.0
2015-Jan-10 05:31N 31°59' E 120°39'0 0.0
2015-Jan-10 04:31N 31°59' E 120°39'0 0.0
2015-Jan-10 03:28N 31°59' E 120°39'0 0.0
2015-Jan-10 02:29N 31°59' E 120°39'0 0.0
2015-Jan-10 01:16N 31°59' E 120°39'0 0.0
2015-Jan-10 00:31N 31°59' E 120°39'0 0.0
2015-Jan-09 23:28N 31°59' E 120°39'0 0.0
2015-Jan-09 22:31N 31°59' E 120°39'0 0.0
2015-Jan-09 21:31N 31°59' E 120°39'0 0.0
2015-Jan-09 20:29N 31°59' E 120°39'0 0.0
2015-Jan-09 19:31N 31°59' E 120°39'0 0.0
2015-Jan-09 18:28N 31°59' E 120°39'0 0.0
2015-Jan-09 17:31N 31°59' E 120°39'0 0.0
2015-Jan-09 16:31N 31°59' E 120°39'0 0.0
2015-Jan-09 15:31N 31°59' E 120°39'0 0.0
2015-Jan-09 14:22N 31°59' E 120°39'0 0.0
2015-Jan-09 13:31N 31°59' E 120°39'0 0.0
2015-Jan-09 12:31N 31°59' E 120°39'0 0.0
2015-Jan-09 11:31N 31°59' E 120°39'0 0.0
2015-Jan-09 10:28N 31°59' E 120°39'0 0.0
2015-Jan-09 09:31N 31°59' E 120°39'0 0.0
2015-Jan-09 08:31N 31°59' E 120°39'0 0.0
2015-Jan-09 07:28N 31°59' E 120°39'0 0.0
2015-Jan-09 06:28N 31°59' E 120°39'0 0.0
2015-Jan-09 05:31N 31°59' E 120°39'0 0.0
2015-Jan-09 04:31N 31°59' E 120°39'0 0.0
2015-Jan-09 03:31N 31°59' E 120°39'0 0.0
2015-Jan-09 02:28N 31°59' E 120°39'0 0.0
2015-Jan-09 01:31N 31°59' E 120°39'0 0.0
2015-Jan-09 00:31N 31°59' E 120°39'0 0.0
2015-Jan-08 22:31N 31°59' E 120°39'0 0.0
2015-Jan-08 21:31N 31°59' E 120°39'0 0.0
2015-Jan-08 20:31N 31°59' E 120°39'0 0.0
2015-Jan-08 19:31N 31°59' E 120°39'0 0.0
2015-Jan-08 18:31N 31°59' E 120°39'0 0.0
2015-Jan-08 17:31N 31°59' E 120°39'0 0.0
2015-Jan-08 16:31N 31°59' E 120°39'0 0.0
2015-Jan-08 15:31N 31°59' E 120°39'0 0.0
2015-Jan-08 14:25N 31°59' E 120°39'0 0.0
2015-Jan-08 13:31N 31°59' E 120°39'0 0.0
2015-Jan-08 12:31N 31°59' E 120°39'0 0.0
2015-Jan-08 11:25N 31°59' E 120°39'0 0.0
2015-Jan-08 10:31N 31°59' E 120°39'0 0.0
2015-Jan-08 09:28N 31°59' E 120°39'0 0.0
2015-Jan-08 08:25N 31°59' E 120°39'0 0.0
2015-Jan-08 07:28N 31°59' E 120°39'0 0.0
2015-Jan-08 06:31N 31°59' E 120°39'0 0.0
2015-Jan-08 05:28N 31°59' E 120°39'0 0.0
2015-Jan-08 04:31N 31°59' E 120°39'0 0.0
2015-Jan-08 03:46N 31°59' E 120°39'0 0.0
2015-Jan-07 20:31N 31°59' E 120°39'0 0.0
2015-Jan-07 19:28N 31°59' E 120°39'0 0.0
2015-Jan-07 18:31N 31°59' E 120°39'0 0.0
2015-Jan-07 17:31N 31°59' E 120°39'0 0.0
2015-Jan-07 16:31N 31°59' E 120°39'0 0.0
2015-Jan-07 15:31N 31°59' E 120°39'0 0.0
2015-Jan-07 14:28N 31°59' E 120°39'0 0.0
2015-Jan-07 13:31N 31°59' E 120°39'0 0.0
2015-Jan-07 12:31N 31°59' E 120°39'0 0.0
2015-Jan-07 11:31N 31°59' E 120°39'0 0.0
2015-Jan-07 10:28N 31°59' E 120°39'0 0.0
2015-Jan-07 09:28N 31°59' E 120°39'5 4.8
2015-Jan-07 08:29N 32°00' E 120°45'0 0.0
2015-Jan-07 07:23N 32°00' E 120°45'0 0.1
2015-Jan-07 06:32N 31°60' E 120°45'0 0.2
2015-Jan-07 05:32N 31°60' E 120°45'0 0.0
2015-Jan-07 04:32N 32°00' E 120°45'0 0.0
2015-Jan-07 03:29N 32°00' E 120°45'0 0.0
2015-Jan-07 02:32N 32°00' E 120°45'5 5.3
2015-Jan-07 01:33N 31°58' E 120°51'9 8.6
2015-Jan-07 00:33N 31°50' E 120°54'8 7.8
2015-Jan-06 23:33N 31°46' E 121°02'8 8.4
2015-Jan-06 22:33N 31°41' E 121°10'7 6.7
2015-Jan-06 21:32N 31°38' E 121°17'0 0.0
2015-Jan-06 20:32N 31°38' E 121°17'0 0.2
2015-Jan-06 19:32N 31°38' E 121°17'0 0.0
2015-Jan-06 18:32N 31°38' E 121°17'0 0.0
2015-Jan-06 17:32N 31°38' E 121°17'0 0.1
2015-Jan-06 16:32N 31°38' E 121°17'0 0.2
2015-Jan-06 15:32N 31°38' E 121°17'0 0.0
2015-Jan-06 14:32N 31°38' E 121°17'0 0.0
2015-Jan-06 13:32N 31°38' E 121°17'0 0.0
2015-Jan-06 12:29N 31°38' E 121°17'0 0.0
2015-Jan-06 11:32N 31°38' E 121°17'0 0.0
2015-Jan-06 10:32N 31°38' E 121°17'1 0.9
2015-Jan-06 09:33N 31°37' E 121°18'9 9.1
2015-Jan-06 08:33N 31°30' E 121°25'7 7.3
2015-Jan-06 07:33N 31°25' E 121°31'4 3.7
2015-Jan-06 06:32N 31°21' E 121°30'1 0.6
2015-Jan-06 05:32N 31°21' E 121°31'0 0.0
2015-Jan-06 04:29N 31°21' E 121°31'0 0.0
2015-Jan-06 03:29N 31°21' E 121°31'0 0.0
2015-Jan-06 02:23N 31°21' E 121°31'0 0.0
2015-Jan-06 01:29N 31°21' E 121°31'0 0.0
2015-Jan-06 00:29N 31°21' E 121°31'0 0.0
2015-Jan-05 23:29N 31°21' E 121°31'0 0.0
2015-Jan-05 22:29N 31°21' E 121°31'0 0.0
2015-Jan-05 21:29N 31°21' E 121°31'0 0.0
2015-Jan-05 20:29N 31°21' E 121°31'0 0.0
2015-Jan-05 19:29N 31°21' E 121°31'0 0.0
2015-Jan-05 18:29N 31°21' E 121°31'0 0.0
2015-Jan-05 17:29N 31°21' E 121°31'0 0.0
2015-Jan-05 16:29N 31°21' E 121°31'0 0.0
2015-Jan-05 15:29N 31°21' E 121°31'0 0.0
2015-Jan-05 14:30N 31°21' E 121°31'0 0.0
2015-Jan-05 13:29N 31°21' E 121°31'0 0.0
2015-Jan-05 12:30N 31°21' E 121°31'0 0.0
2015-Jan-05 11:23N 31°21' E 121°31'0 0.0
2015-Jan-05 10:29N 31°21' E 121°31'0 0.0
2015-Jan-05 09:23N 31°21' E 121°31'0 0.0
2015-Jan-05 08:23N 31°21' E 121°31'0 0.0
2015-Jan-05 07:29N 31°21' E 121°31'3 2.7
2015-Jan-05 06:34N 31°23' E 121°31'3 2.9
2015-Jan-05 05:33N 31°24' E 121°34'2 2.4
2015-Jan-05 04:32N 31°23' E 121°37'0 0.1
2015-Jan-05 03:32N 31°23' E 121°37'0 0.1
2015-Jan-05 02:32N 31°23' E 121°37'0 0.0
2015-Jan-05 01:32N 31°23' E 121°37'0 0.2
2015-Jan-05 00:32N 31°23' E 121°37'0 0.0
2015-Jan-04 23:32N 31°23' E 121°37'0 0.0
2015-Jan-04 22:32N 31°23' E 121°37'0 0.0
2015-Jan-04 21:32N 31°23' E 121°37'0 0.0
2015-Jan-04 20:32N 31°23' E 121°37'0 0.0
2015-Jan-04 19:32N 31°23' E 121°37'0 0.2
2015-Jan-04 18:32N 31°23' E 121°37'0 0.0
2015-Jan-04 17:32N 31°23' E 121°37'0 0.1
2015-Jan-04 16:32N 31°23' E 121°37'0 0.0
2015-Jan-04 15:32N 31°23' E 121°37'0 0.0
2015-Jan-04 14:32N 31°23' E 121°37'0 0.1
2015-Jan-04 13:33N 31°23' E 121°37'0 0.2
2015-Jan-04 12:32N 31°23' E 121°37'0 0.0
2015-Jan-04 11:32N 31°23' E 121°37'0 0.0
2015-Jan-04 10:32N 31°23' E 121°37'0 0.0
2015-Jan-04 09:33N 31°23' E 121°37'0 0.0
2015-Jan-04 08:32N 31°23' E 121°37'0 0.1
2015-Jan-04 07:32N 31°23' E 121°37'0 0.1
2015-Jan-04 06:32N 31°23' E 121°37'0 0.1
2015-Jan-04 05:32N 31°23' E 121°37'0 0.0
2015-Jan-04 04:33N 31°23' E 121°37'2 1.9
2015-Jan-04 03:33N 31°23' E 121°35'4 4.1
2015-Jan-04 02:33N 31°22' E 121°30'6 5.9
2015-Jan-04 01:33N 31°17' E 121°34'5 5.4
2015-Jan-04 00:33N 31°13' E 121°30'6 6.4
2015-Jan-03 23:33N 31°07' E 121°28'1 0.9
2015-Jan-03 22:33N 31°06' E 121°28'0 0.0
2015-Jan-03 21:33N 31°06' E 121°28'0 0.0
2015-Jan-03 20:33N 31°06' E 121°28'0 0.0
2015-Jan-03 19:33N 31°06' E 121°28'  
Track history (hours):
 
Tides and Currents Weather Stations Pressure Air Temp Water Temp Dewpoint Dewpoint Depression Visibility Wind Speed Wind Dir Waves Ship Positions

Thai Harvest

Last reported at 2015-Jan-13 19:33 UTC. Time now 2015-Jan-26 16:27 UTC.
Position N 22°27' E 119°54'.
Warning: this ship's position is 12 days out of date.

Length 174 m; draft 9.4 m.

Type: Cargo ship. MMSI: 538004544.

Date/timePositionNaut miles runAvg speedWind from/ knotsBaromVisibWave heightAir tempDewpointWater temp
2015-Jan-13 19:33N 22°27' E 119°54'1010.6
2015-Jan-13 18:33N 22°37' E 119°54'1110.5
2015-Jan-13 17:33N 22°48' E 119°54'  
2015-Jan-11 12:24N 31°04' E 122°32'7 7.8
2015-Jan-11 11:32N 31°05' E 122°24'1111.6
2015-Jan-11 10:33N 31°10' E 122°12'1211.6
2015-Jan-11 09:33N 31°15' E 121°60'10 9.7
2015-Jan-11 08:33N 31°17' E 121°49'9 8.8
2015-Jan-11 07:33N 31°21' E 121°40'7 7.5
2015-Jan-11 06:33N 31°25' E 121°32'7 6.8
2015-Jan-11 05:33N 31°29' E 121°26'1010.4
2015-Jan-11 04:33N 31°36' E 121°17'1211.9
2015-Jan-11 03:33N 31°44' E 121°06'1111.4
2015-Jan-11 02:33N 31°49' E 120°55'1010.3
2015-Jan-11 01:33N 31°59' E 120°50'9 8.8
2015-Jan-11 00:31N 31°59' E 120°39'0 0.1
2015-Jan-10 23:29N 31°59' E 120°39'0 0.0
2015-Jan-10 22:31N 31°59' E 120°39'0 0.0
2015-Jan-10 21:28N 31°59' E 120°39'0 0.0
2015-Jan-10 20:28N 31°59' E 120°39'0 0.0
2015-Jan-10 19:31N 31°59' E 120°39'0 0.0
2015-Jan-10 18:28N 31°59' E 120°39'0 0.0
2015-Jan-10 17:31N 31°59' E 120°39'0 0.0
2015-Jan-10 16:31N 31°59' E 120°39'0 0.0
2015-Jan-10 15:28N 31°59' E 120°39'0 0.0
2015-Jan-10 14:31N 31°59' E 120°39'0 0.0
2015-Jan-10 13:31N 31°59' E 120°39'0 0.0
2015-Jan-10 12:31N 31°59' E 120°39'0 0.0
2015-Jan-10 11:25N 31°59' E 120°39'0 0.0
2015-Jan-10 10:31N 31°59' E 120°39'0 0.0
2015-Jan-10 09:25N 31°59' E 120°39'0 0.0
2015-Jan-10 08:31N 31°59' E 120°39'0 0.0
2015-Jan-10 07:28N 31°59' E 120°39'0 0.0
2015-Jan-10 06:31N 31°59' E 120°39'0 0.0
2015-Jan-10 05:31N 31°59' E 120°39'0 0.0
2015-Jan-10 04:31N 31°59' E 120°39'0 0.0
2015-Jan-10 03:28N 31°59' E 120°39'0 0.0
2015-Jan-10 02:29N 31°59' E 120°39'0 0.0
2015-Jan-10 01:16N 31°59' E 120°39'0 0.0
2015-Jan-10 00:31N 31°59' E 120°39'0 0.0
2015-Jan-09 23:28N 31°59' E 120°39'0 0.0
2015-Jan-09 22:31N 31°59' E 120°39'0 0.0
2015-Jan-09 21:31N 31°59' E 120°39'0 0.0
2015-Jan-09 20:29N 31°59' E 120°39'0 0.0
2015-Jan-09 19:31N 31°59' E 120°39'0 0.0
2015-Jan-09 18:28N 31°59' E 120°39'0 0.0
2015-Jan-09 17:31N 31°59' E 120°39'0 0.0
2015-Jan-09 16:31N 31°59' E 120°39'0 0.0
2015-Jan-09 15:31N 31°59' E 120°39'0 0.0
2015-Jan-09 14:22N 31°59' E 120°39'0 0.0
2015-Jan-09 13:31N 31°59' E 120°39'0 0.0
2015-Jan-09 12:31N 31°59' E 120°39'0 0.0
2015-Jan-09 11:31N 31°59' E 120°39'0 0.0
2015-Jan-09 10:28N 31°59' E 120°39'0 0.0
2015-Jan-09 09:31N 31°59' E 120°39'0 0.0
2015-Jan-09 08:31N 31°59' E 120°39'0 0.0
2015-Jan-09 07:28N 31°59' E 120°39'0 0.0
2015-Jan-09 06:28N 31°59' E 120°39'0 0.0
2015-Jan-09 05:31N 31°59' E 120°39'0 0.0
2015-Jan-09 04:31N 31°59' E 120°39'0 0.0
2015-Jan-09 03:31N 31°59' E 120°39'0 0.0
2015-Jan-09 02:28N 31°59' E 120°39'0 0.0
2015-Jan-09 01:31N 31°59' E 120°39'0 0.0
2015-Jan-09 00:31N 31°59' E 120°39'0 0.0
2015-Jan-08 22:31N 31°59' E 120°39'0 0.0
2015-Jan-08 21:31N 31°59' E 120°39'0 0.0
2015-Jan-08 20:31N 31°59' E 120°39'0 0.0
2015-Jan-08 19:31N 31°59' E 120°39'0 0.0
2015-Jan-08 18:31N 31°59' E 120°39'0 0.0
2015-Jan-08 17:31N 31°59' E 120°39'0 0.0
2015-Jan-08 16:31N 31°59' E 120°39'0 0.0
2015-Jan-08 15:31N 31°59' E 120°39'0 0.0
2015-Jan-08 14:25N 31°59' E 120°39'0 0.0
2015-Jan-08 13:31N 31°59' E 120°39'0 0.0
2015-Jan-08 12:31N 31°59' E 120°39'0 0.0
2015-Jan-08 11:25N 31°59' E 120°39'0 0.0
2015-Jan-08 10:31N 31°59' E 120°39'0 0.0
2015-Jan-08 09:28N 31°59' E 120°39'0 0.0
2015-Jan-08 08:25N 31°59' E 120°39'0 0.0
2015-Jan-08 07:28N 31°59' E 120°39'0 0.0
2015-Jan-08 06:31N 31°59' E 120°39'0 0.0
2015-Jan-08 05:28N 31°59' E 120°39'0 0.0
2015-Jan-08 04:31N 31°59' E 120°39'0 0.0
2015-Jan-08 03:46N 31°59' E 120°39'0 0.0
2015-Jan-07 20:31N 31°59' E 120°39'0 0.0
2015-Jan-07 19:28N 31°59' E 120°39'0 0.0
2015-Jan-07 18:31N 31°59' E 120°39'0 0.0
2015-Jan-07 17:31N 31°59' E 120°39'0 0.0
2015-Jan-07 16:31N 31°59' E 120°39'0 0.0
2015-Jan-07 15:31N 31°59' E 120°39'0 0.0
2015-Jan-07 14:28N 31°59' E 120°39'0 0.0
2015-Jan-07 13:31N 31°59' E 120°39'0 0.0
2015-Jan-07 12:31N 31°59' E 120°39'0 0.0
2015-Jan-07 11:31N 31°59' E 120°39'0 0.0
2015-Jan-07 10:28N 31°59' E 120°39'0 0.0
2015-Jan-07 09:28N 31°59' E 120°39'5 4.8
2015-Jan-07 08:29N 32°00' E 120°45'0 0.0
2015-Jan-07 07:23N 32°00' E 120°45'0 0.1
2015-Jan-07 06:32N 31°60' E 120°45'0 0.2
2015-Jan-07 05:32N 31°60' E 120°45'0 0.0
2015-Jan-07 04:32N 32°00' E 120°45'0 0.0
2015-Jan-07 03:29N 32°00' E 120°45'0 0.0
2015-Jan-07 02:32N 32°00' E 120°45'5 5.3
2015-Jan-07 01:33N 31°58' E 120°51'9 8.6
2015-Jan-07 00:33N 31°50' E 120°54'8 7.8
2015-Jan-06 23:33N 31°46' E 121°02'8 8.4
2015-Jan-06 22:33N 31°41' E 121°10'7 6.7
2015-Jan-06 21:32N 31°38' E 121°17'0 0.0
2015-Jan-06 20:32N 31°38' E 121°17'0 0.2
2015-Jan-06 19:32N 31°38' E 121°17'0 0.0
2015-Jan-06 18:32N 31°38' E 121°17'0 0.0
2015-Jan-06 17:32N 31°38' E 121°17'0 0.1
2015-Jan-06 16:32N 31°38' E 121°17'0 0.2
2015-Jan-06 15:32N 31°38' E 121°17'0 0.0
2015-Jan-06 14:32N 31°38' E 121°17'0 0.0
2015-Jan-06 13:32N 31°38' E 121°17'0 0.0
2015-Jan-06 12:29N 31°38' E 121°17'0 0.0
2015-Jan-06 11:32N 31°38' E 121°17'0 0.0
2015-Jan-06 10:32N 31°38' E 121°17'1 0.9
2015-Jan-06 09:33N 31°37' E 121°18'9 9.1
2015-Jan-06 08:33N 31°30' E 121°25'7 7.3
2015-Jan-06 07:33N 31°25' E 121°31'4 3.7
2015-Jan-06 06:32N 31°21' E 121°30'1 0.6
2015-Jan-06 05:32N 31°21' E 121°31'0 0.0
2015-Jan-06 04:29N 31°21' E 121°31'0 0.0
2015-Jan-06 03:29N 31°21' E 121°31'0 0.0
2015-Jan-06 02:23N 31°21' E 121°31'0 0.0
2015-Jan-06 01:29N 31°21' E 121°31'0 0.0
2015-Jan-06 00:29N 31°21' E 121°31'0 0.0
2015-Jan-05 23:29N 31°21' E 121°31'0 0.0
2015-Jan-05 22:29N 31°21' E 121°31'0 0.0
2015-Jan-05 21:29N 31°21' E 121°31'0 0.0
2015-Jan-05 20:29N 31°21' E 121°31'0 0.0
2015-Jan-05 19:29N 31°21' E 121°31'0 0.0
2015-Jan-05 18:29N 31°21' E 121°31'0 0.0
2015-Jan-05 17:29N 31°21' E 121°31'0 0.0
2015-Jan-05 16:29N 31°21' E 121°31'0 0.0
2015-Jan-05 15:29N 31°21' E 121°31'0 0.0
2015-Jan-05 14:30N 31°21' E 121°31'0 0.0
2015-Jan-05 13:29N 31°21' E 121°31'0 0.0
2015-Jan-05 12:30N 31°21' E 121°31'0 0.0
2015-Jan-05 11:23N 31°21' E 121°31'0 0.0
2015-Jan-05 10:29N 31°21' E 121°31'0 0.0
2015-Jan-05 09:23N 31°21' E 121°31'0 0.0
2015-Jan-05 08:23N 31°21' E 121°31'0 0.0
2015-Jan-05 07:29N 31°21' E 121°31'3 2.7
2015-Jan-05 06:34N 31°23' E 121°31'3 2.9
2015-Jan-05 05:33N 31°24' E 121°34'2 2.4
2015-Jan-05 04:32N 31°23' E 121°37'0 0.1
2015-Jan-05 03:32N 31°23' E 121°37'0 0.1
2015-Jan-05 02:32N 31°23' E 121°37'0 0.0
2015-Jan-05 01:32N 31°23' E 121°37'0 0.2
2015-Jan-05 00:32N 31°23' E 121°37'0 0.0
2015-Jan-04 23:32N 31°23' E 121°37'0 0.0
2015-Jan-04 22:32N 31°23' E 121°37'0 0.0
2015-Jan-04 21:32N 31°23' E 121°37'0 0.0
2015-Jan-04 20:32N 31°23' E 121°37'0 0.0
2015-Jan-04 19:32N 31°23' E 121°37'0 0.2
2015-Jan-04 18:32N 31°23' E 121°37'0 0.0
2015-Jan-04 17:32N 31°23' E 121°37'0 0.1
2015-Jan-04 16:32N 31°23' E 121°37'0 0.0
2015-Jan-04 15:32N 31°23' E 121°37'0 0.0
2015-Jan-04 14:32N 31°23' E 121°37'0 0.1
2015-Jan-04 13:33N 31°23' E 121°37'0 0.2
2015-Jan-04 12:32N 31°23' E 121°37'0 0.0
2015-Jan-04 11:32N 31°23' E 121°37'0 0.0
2015-Jan-04 10:32N 31°23' E 121°37'0 0.0
2015-Jan-04 09:33N 31°23' E 121°37'0 0.0
2015-Jan-04 08:32N 31°23' E 121°37'0 0.1
2015-Jan-04 07:32N 31°23' E 121°37'0 0.1
2015-Jan-04 06:32N 31°23' E 121°37'0 0.1
2015-Jan-04 05:32N 31°23' E 121°37'0 0.0
2015-Jan-04 04:33N 31°23' E 121°37'2 1.9
2015-Jan-04 03:33N 31°23' E 121°35'4 4.1
2015-Jan-04 02:33N 31°22' E 121°30'6 5.9
2015-Jan-04 01:33N 31°17' E 121°34'5 5.4
2015-Jan-04 00:33N 31°13' E 121°30'6 6.4
2015-Jan-03 23:33N 31°07' E 121°28'1 0.9
2015-Jan-03 22:33N 31°06' E 121°28'0 0.0
2015-Jan-03 21:33N 31°06' E 121°28'0 0.0
2015-Jan-03 20:33N 31°06' E 121°28'0 0.0
2015-Jan-03 19:33N 31°06' E 121°28'  

Dump ship's entire track history